KFHRCYCD

Guest
Details From KFHR - FRIDAY HARBOR
To CYCD - Nanaimo
Flight Number -
Tags generated
Created
Modified
Stats Distance 46 nm / 86 km
Max Altitude 2,600 ft / 792 m
Waypoints 3
Social Downloads 0
Likes 0
Share VATSIM

Download

Looking for another format? Having issues loading an existing format? Contact us
Advertisement - Login to hide

Notes

Basic altitude profile: - Ascent Rate: 2500ft/min - Ascent Speed: 250kts - Cruise Altitude: 35000ft - Cruise Speed: 420kts - Descent Rate: 1500ft/min - Descent Speed: 250kts Options: - Use NATs: yes - Use PACOTS: yes - Use low airways: yes - Use high airways: yes

Route

KFHR IMPOR CYCD

ID Type Via Altitude Latitude Longitude Leg Dist Tot Dist Heading (true) Name
O KFHR APT - 0 ft / 0 m 48.52197˚ -123.02437˚ - 0 nm - FRIDAY HARBOR
IMPOR FIX - 2,600 ft / 792 m 48.62794˚ -123.12540˚ 7 nm 7 nm 328° / 328° -
O CYCD APT - 0 ft / 0 m 49.05237˚ -123.87011˚ 38 nm 46 nm 311° / 311° Nanaimo

Altitude Profile

Advertisement - Login to hide

KFHR

Details ICAO KFHR (FRD)
Name FRIDAY HARBOR
Region United States
Timezone America/Los_Angeles (UTC-8.0)
Stats Elevation 113 ft / 34 m (AMSL)
Location 48.521966° -123.024368°
Runways 1
Magnetic Variation 16.072° E

METAR

KFHR 152153Z AUTO 12003KT 8SM OVC004 06/06 A3016 RMK AO2 RAE30 SLP214 P0001 T00560056 $

Decode

TAF

Not found

Departure Runways

ID Width Length Bearing (true) Bearing (mag) Surface Threshold Offset Overrun Length
16 75 ft / 23 m 3,402 ft / 1,037 m 177.06° 160.99° Asphalt 0 ft / 0 m 0 ft / 0 m
34 75 ft / 23 m 3,402 ft / 1,037 m 357.06° 340.99° Asphalt 0 ft / 0 m 0 ft / 0 m

CYCD

Details ICAO CYCD (YCD)
Name Nanaimo
Region Canada
Timezone America/Vancouver (UTC-8.0)
Stats Elevation 93 ft / 28 m (AMSL)
Location 49.052367° -123.870111°
Runways 1
Magnetic Variation 16.342° E

METAR

CYCD 152200Z 16003KT 20SM SCT035 BKN100 BKN220 07/06 A3014 RMK SC4AC1CI1 SLP209

Decode

TAF

TAF CYCD 151738Z 1518/1605 VRB03KT P6SM FEW012 BKN030 OVC070 TEMPO 1518/1523 5SM -RA BR BKN012 OVC030 FM152300 30006KT P6SM SCT015 BKN050 TEMPO 1523/1603 BKN015 OVC040 FM160300 28005KT P6SM FEW020 PROB30 1603/1605 2SM BR RMK NXT FCST BY 160000Z

Decode

Destination Runways

ID Width Length Bearing (true) Bearing (mag) Surface Threshold Offset Overrun Length
16 200 ft / 61 m 5,018 ft / 1,529 m 180.75° 164.41° Asphalt 0 ft / 0 m 0 ft / 0 m
34 200 ft / 61 m 5,018 ft / 1,529 m 0.75° 344.41° Asphalt 1,001 ft / 305 m 0 ft / 0 m